createdAt,value
2023-04-16T00:01:26.460Z,2.80
2023-04-16T00:03:55.097Z,2.60
2023-04-16T00:06:24.389Z,3.60
2023-04-16T00:08:52.724Z,3.43
2023-04-16T00:11:21.124Z,3.20
2023-04-16T00:13:49.467Z,3.10
2023-04-16T00:16:17.892Z,3.00
2023-04-16T00:18:47.629Z,3.30
2023-04-16T00:21:16.042Z,3.33
2023-04-16T00:23:44.361Z,3.37
2023-04-16T00:26:12.600Z,4.17
2023-04-16T00:28:41.601Z,3.77
2023-04-16T00:31:10.114Z,3.87
2023-04-16T00:33:38.510Z,4.10
2023-04-16T00:36:08.560Z,3.97
2023-04-16T00:38:36.827Z,3.70
2023-04-16T00:41:05.188Z,3.50
2023-04-16T00:43:33.556Z,3.83
2023-04-16T00:46:01.900Z,4.10
2023-04-16T00:48:32.353Z,4.23
2023-04-16T00:51:01.628Z,3.80
2023-04-16T00:53:31.614Z,4.60
2023-04-16T00:56:00.774Z,3.70
2023-04-16T00:58:29.112Z,4.10
2023-04-16T01:00:57.719Z,5.10
2023-04-16T01:03:26.268Z,4.33
2023-04-16T01:05:54.682Z,4.30
2023-04-16T01:08:23.471Z,4.40
2023-04-16T01:10:53.074Z,4.30
2023-04-16T01:13:21.421Z,5.00
2023-04-16T01:15:49.887Z,4.00
2023-04-16T01:18:18.266Z,4.57
2023-04-16T01:20:48.074Z,3.73
2023-04-16T01:23:18.449Z,4.00
2023-04-16T01:25:46.767Z,4.67
2023-04-16T01:28:15.065Z,4.53
2023-04-16T01:30:43.448Z,4.30
2023-04-16T01:33:12.776Z,5.40
2023-04-16T01:35:41.681Z,4.20
2023-04-16T01:38:11.653Z,3.60
2023-04-16T01:40:40.234Z,4.63
2023-04-16T01:43:08.609Z,5.70
2023-04-16T01:45:37.190Z,3.90
2023-04-16T01:48:05.892Z,4.30
2023-04-16T01:50:34.423Z,4.17
2023-04-16T01:53:05.037Z,3.57
2023-04-16T01:55:35.781Z,4.00
2023-04-16T01:58:04.305Z,4.20
2023-04-16T02:00:32.589Z,3.50
2023-04-16T02:03:01.352Z,3.83
2023-04-16T02:05:30.060Z,4.20
2023-04-16T02:07:58.439Z,3.87
2023-04-16T02:10:26.872Z,4.00
2023-04-16T02:12:56.648Z,4.10
2023-04-16T02:15:25.286Z,4.97
2023-04-16T02:17:56.849Z,3.77
2023-04-16T02:20:25.619Z,4.50
2023-04-16T02:22:54.078Z,4.20
2023-04-16T02:25:23.138Z,4.00
2023-04-16T02:27:51.396Z,4.30
2023-04-16T02:30:21.392Z,3.70
2023-04-16T02:32:49.772Z,3.70
2023-04-16T02:35:18.150Z,4.00
2023-04-16T02:37:46.482Z,4.10
2023-04-16T02:40:14.905Z,4.10
2023-04-16T02:42:43.230Z,4.20
2023-04-16T02:45:12.508Z,4.70
2023-04-16T02:47:42.142Z,4.30
2023-04-16T02:50:10.732Z,3.97
2023-04-16T02:52:39.025Z,3.67
2023-04-16T02:55:07.844Z,4.40
2023-04-16T02:57:36.429Z,4.90
2023-04-16T03:00:05.857Z,3.93
2023-04-16T03:02:34.299Z,4.37
2023-04-16T03:05:03.994Z,3.93
2023-04-16T03:07:32.430Z,3.67
2023-04-16T03:10:00.787Z,3.57
2023-04-16T03:12:29.078Z,3.40
2023-04-16T03:14:57.403Z,4.13
2023-04-16T03:17:25.780Z,4.13
2023-04-16T03:19:54.337Z,3.40
2023-04-16T03:22:23.981Z,4.10
2023-04-16T03:24:52.289Z,4.23
2023-04-16T03:27:20.646Z,4.07
2023-04-16T03:29:48.903Z,3.93
2023-04-16T03:32:17.454Z,3.80
2023-04-16T03:34:46.053Z,4.07
2023-04-16T03:37:14.357Z,3.27
2023-04-16T03:39:44.036Z,3.50
2023-04-16T03:42:12.382Z,3.70
2023-04-16T03:44:40.914Z,3.63
2023-04-16T03:47:09.301Z,3.20
2023-04-16T03:49:37.624Z,3.70
2023-04-16T03:52:05.998Z,3.57
2023-04-16T03:54:34.284Z,3.50
2023-04-16T03:57:03.936Z,3.60
2023-04-16T03:59:32.295Z,4.17
2023-04-16T04:02:00.695Z,4.10
2023-04-16T04:04:29.150Z,4.33
2023-04-16T04:06:57.593Z,3.30
2023-04-16T04:09:25.931Z,4.27
2023-04-16T04:11:54.910Z,3.80
2023-04-16T04:14:24.529Z,3.00
2023-04-16T04:16:52.830Z,2.40
2023-04-16T04:19:21.350Z,3.40
2023-04-16T04:21:49.823Z,3.00
2023-04-16T04:24:18.165Z,3.10
2023-04-16T04:26:46.995Z,3.10
2023-04-16T04:29:15.358Z,3.77
2023-04-16T04:31:45.093Z,2.90
2023-04-16T04:34:13.379Z,2.87
2023-04-16T04:36:41.658Z,3.37
2023-04-16T04:39:10.232Z,3.07
2023-04-16T04:41:38.723Z,2.60
2023-04-16T04:44:07.068Z,2.47
2023-04-16T04:46:35.400Z,2.30
2023-04-16T04:49:05.156Z,2.43
2023-04-16T04:51:33.532Z,2.10
2023-04-16T04:54:01.834Z,2.80
2023-04-16T04:56:30.188Z,2.17
2023-04-16T04:58:58.631Z,2.13
2023-04-16T05:01:26.990Z,2.63
2023-04-16T05:03:55.342Z,2.70
2023-04-16T05:06:25.276Z,2.53
2023-04-16T05:08:54.025Z,2.60
2023-04-16T05:11:22.406Z,2.23
2023-04-16T05:13:50.762Z,1.90
2023-04-16T05:16:19.207Z,2.20
2023-04-16T05:18:47.494Z,2.07
2023-04-16T05:21:15.798Z,2.00
2023-04-16T05:23:45.725Z,1.80
2023-04-16T05:26:14.224Z,2.03
2023-04-16T05:28:42.558Z,1.83
2023-04-16T05:31:10.916Z,1.50
2023-04-16T05:33:39.271Z,1.70
2023-04-16T05:36:07.878Z,1.73
2023-04-16T05:38:36.174Z,1.63
2023-04-16T05:41:06.048Z,1.73
2023-04-16T05:43:34.397Z,1.80
2023-04-16T05:46:02.757Z,1.97
2023-04-16T05:48:31.077Z,1.50
2023-04-16T05:50:59.391Z,1.50
2023-04-16T05:53:27.645Z,2.50
2023-04-16T05:55:55.933Z,1.50
2023-04-16T05:58:25.614Z,1.60
2023-04-16T06:00:54.213Z,1.50
2023-04-16T06:03:22.807Z,1.30
2023-04-16T06:05:51.176Z,1.30
2023-04-16T06:08:19.624Z,1.30
2023-04-16T06:10:48.199Z,1.40
2023-04-16T06:13:16.631Z,1.30
2023-04-16T06:15:47.005Z,1.07
2023-04-16T06:18:15.638Z,1.30
2023-04-16T06:20:44.018Z,1.20
2023-04-16T06:23:12.348Z,1.40
2023-04-16T06:25:40.730Z,1.30
2023-04-16T06:28:09.023Z,1.20
2023-04-16T06:30:37.342Z,1.30
2023-04-16T06:33:07.111Z,1.23
2023-04-16T06:35:35.878Z,1.10
2023-04-16T06:38:04.258Z,1.20
2023-04-16T06:40:32.751Z,1.30
2023-04-16T06:43:01.537Z,1.23
2023-04-16T06:45:29.802Z,1.23
2023-04-16T06:47:58.974Z,1.13
2023-04-16T06:50:29.378Z,1.13
2023-04-16T06:52:58.011Z,1.20
2023-04-16T06:55:26.385Z,1.20
2023-04-16T06:57:54.763Z,1.10
2023-04-16T07:00:23.080Z,1.00
2023-04-16T07:02:51.727Z,1.10
2023-04-16T07:05:20.108Z,1.10
2023-04-16T07:07:49.870Z,1.10
2023-04-16T07:10:18.307Z,1.07
2023-04-16T07:12:46.618Z,1.10
2023-04-16T07:15:14.961Z,1.10
2023-04-16T07:17:43.286Z,1.00
2023-04-16T07:20:12.961Z,1.10
2023-04-16T07:22:41.328Z,1.20
2023-04-16T07:25:11.444Z,1.20
2023-04-16T07:27:39.850Z,1.00
2023-04-16T07:30:09.264Z,1.10
2023-04-16T07:32:37.738Z,1.30
2023-04-16T07:35:06.595Z,1.20
2023-04-16T07:37:34.917Z,1.20
2023-04-16T07:40:04.313Z,1.33
2023-04-16T07:42:34.052Z,1.23
2023-04-16T07:45:02.489Z,1.10
2023-04-16T07:47:30.838Z,1.10
2023-04-16T07:49:59.192Z,1.10
2023-04-16T07:52:27.696Z,1.37
2023-04-16T07:54:56.034Z,1.30
2023-04-16T07:57:24.401Z,1.30
2023-04-16T07:59:53.955Z,1.30
2023-04-16T08:02:22.271Z,1.20
2023-04-16T08:04:50.787Z,1.20
2023-04-16T08:07:19.146Z,1.00
2023-04-16T08:09:50.494Z,1.20
2023-04-16T08:12:18.952Z,1.10
2023-04-16T08:14:47.256Z,1.87
2023-04-16T08:17:17.115Z,1.07
2023-04-16T08:19:45.822Z,1.23
2023-04-16T08:22:14.134Z,1.10
2023-04-16T08:24:42.659Z,1.40
2023-04-16T08:27:19.096Z,1.50
2023-04-16T08:29:48.630Z,1.20
2023-04-16T08:32:18.240Z,1.70
2023-04-16T08:34:46.706Z,1.40
2023-04-16T08:37:14.964Z,1.57
2023-04-16T08:39:43.301Z,1.40
2023-04-16T08:42:14.731Z,1.23
2023-04-16T08:44:47.803Z,1.30
2023-04-16T08:47:18.629Z,1.23
2023-04-16T08:49:47.315Z,3.03
2023-04-16T08:52:18.360Z,1.13
2023-04-16T08:54:56.978Z,1.47
2023-04-16T08:57:25.848Z,1.50
2023-04-16T08:59:56.271Z,1.20
2023-04-16T09:02:27.791Z,1.10
2023-04-16T09:04:57.727Z,1.80
2023-04-16T09:07:26.487Z,1.87
2023-04-16T09:09:55.161Z,1.10
2023-04-16T09:12:25.124Z,1.20
2023-04-16T09:14:53.646Z,1.20
2023-04-16T09:17:21.939Z,1.17
2023-04-16T09:19:51.721Z,1.23
2023-04-16T09:22:20.039Z,1.40
2023-04-16T09:24:48.329Z,1.23
2023-04-16T09:27:16.675Z,1.40
2023-04-16T09:29:45.076Z,1.37
2023-04-16T09:32:13.762Z,1.17
2023-04-16T09:34:59.869Z,1.20
2023-04-16T09:37:29.804Z,1.13
2023-04-16T09:39:59.162Z,1.60
2023-04-16T09:42:28.336Z,1.20
2023-04-16T09:44:59.365Z,1.50
2023-04-16T09:47:40.062Z,1.30
2023-04-16T09:50:12.648Z,1.30
2023-04-16T09:52:41.579Z,1.00
2023-04-16T09:55:10.047Z,1.30
2023-04-16T09:57:39.304Z,1.10
2023-04-16T10:00:09.120Z,1.10
2023-04-16T10:02:39.301Z,1.20
2023-04-16T10:05:08.265Z,1.60
2023-04-16T10:07:38.505Z,1.20
2023-04-16T10:10:07.284Z,1.10
2023-04-16T10:12:35.756Z,1.20
2023-04-16T10:15:04.961Z,1.40
2023-04-16T10:17:33.443Z,1.50
2023-04-16T10:20:02.576Z,1.30
2023-04-16T10:22:30.880Z,1.10
2023-04-16T10:25:01.080Z,1.47
2023-04-16T10:27:29.753Z,1.10
2023-04-16T10:29:58.179Z,1.20
2023-04-16T10:32:28.729Z,1.33
2023-04-16T10:34:57.314Z,1.20
2023-04-16T10:37:31.378Z,1.27
2023-04-16T10:40:01.373Z,1.10
2023-04-16T10:42:29.782Z,1.30
2023-04-16T10:45:01.242Z,1.10
2023-04-16T10:47:31.686Z,1.20
2023-04-16T10:50:00.001Z,1.00
2023-04-16T10:52:31.265Z,1.37
2023-04-16T10:55:01.943Z,1.20
2023-04-16T10:57:31.748Z,1.20
2023-04-16T11:00:00.050Z,1.40
2023-04-16T11:02:30.975Z,1.30
2023-04-16T11:04:59.620Z,1.17
2023-04-16T11:07:34.749Z,1.30
2023-04-16T11:10:06.031Z,1.17
2023-04-16T11:12:37.262Z,1.10
2023-04-16T11:15:06.441Z,1.20
2023-04-16T11:17:38.876Z,1.40
2023-04-16T11:20:19.283Z,1.40
2023-04-16T11:22:49.237Z,1.23
2023-04-16T11:25:22.871Z,1.33
2023-04-16T11:27:51.959Z,1.20
2023-04-16T11:30:20.884Z,1.10
2023-04-16T11:32:49.362Z,1.30
2023-04-16T11:35:18.577Z,1.30
2023-04-16T11:37:48.392Z,1.20
2023-04-16T11:40:16.850Z,1.20
2023-04-16T11:42:46.729Z,1.50
2023-04-16T11:45:15.123Z,1.10
2023-04-16T11:47:47.323Z,1.40
2023-04-16T11:50:20.013Z,1.50
2023-04-16T11:52:48.778Z,1.13
2023-04-16T11:55:17.189Z,1.30
2023-04-16T11:57:46.998Z,1.10
2023-04-16T12:00:15.998Z,1.50
2023-04-16T12:02:45.193Z,1.20
2023-04-16T12:05:30.858Z,1.53
2023-04-16T12:07:59.585Z,1.33
2023-04-16T12:10:28.244Z,1.27
2023-04-16T12:13:11.196Z,1.33
2023-04-16T12:15:46.179Z,1.30
2023-04-16T12:18:14.945Z,1.37
2023-04-16T12:20:43.697Z,2.60
2023-04-16T12:23:13.728Z,1.80
2023-04-16T12:25:44.609Z,1.20
2023-04-16T12:28:16.498Z,1.50
2023-04-16T12:30:51.326Z,1.30
2023-04-16T12:33:21.211Z,1.23
2023-04-16T12:35:49.707Z,1.30
2023-04-16T12:38:18.481Z,1.17
2023-04-16T12:40:47.008Z,1.10
2023-04-16T12:43:16.867Z,1.40
2023-04-16T12:45:45.299Z,1.30
2023-04-16T12:48:13.719Z,1.33
2023-04-16T12:50:44.151Z,1.40
2023-04-16T12:53:12.622Z,1.30
2023-04-16T12:55:40.973Z,1.20
2023-04-16T12:58:12.481Z,1.40
2023-04-16T13:00:42.331Z,1.10
2023-04-16T13:03:10.820Z,1.60
2023-04-16T13:05:39.402Z,1.50
2023-04-16T13:08:07.876Z,1.10
2023-04-16T13:10:36.815Z,1.20
2023-04-16T13:13:05.237Z,1.20
2023-04-16T13:15:33.595Z,1.10
2023-04-16T13:18:03.433Z,1.17
2023-04-16T13:20:31.917Z,1.30
2023-04-16T13:23:00.666Z,1.10
2023-04-16T13:25:30.369Z,1.10
2023-04-16T13:27:58.668Z,1.30
2023-04-16T13:30:29.334Z,1.40
2023-04-16T13:32:58.014Z,1.93
2023-04-16T13:35:28.369Z,1.40
2023-04-16T13:37:56.639Z,1.40
2023-04-16T13:40:24.995Z,1.53
2023-04-16T13:42:53.326Z,1.10
2023-04-16T13:45:21.648Z,1.20
2023-04-16T13:47:50.149Z,1.43
2023-04-16T13:50:18.552Z,1.20
2023-04-16T13:52:48.149Z,1.30
2023-04-16T13:55:19.188Z,1.10
2023-04-16T13:57:48.139Z,1.20
2023-04-16T14:00:17.226Z,1.47
2023-04-16T14:02:48.535Z,3.20
2023-04-16T14:05:17.424Z,1.30
2023-04-16T14:07:45.778Z,1.40
2023-04-16T14:10:15.542Z,1.10
2023-04-16T14:12:44.425Z,1.20
2023-04-16T14:15:14.657Z,2.20
2023-04-16T14:17:43.975Z,1.40
2023-04-16T14:20:12.914Z,1.10
2023-04-16T14:22:42.465Z,1.40
2023-04-16T14:25:10.905Z,1.50
2023-04-16T14:27:41.276Z,1.97
2023-04-16T14:30:10.047Z,1.20
2023-04-16T14:32:38.417Z,1.37
2023-04-16T14:35:08.312Z,1.20
2023-04-16T14:37:36.839Z,1.73
2023-04-16T14:40:07.855Z,1.20
2023-04-16T14:42:36.588Z,1.83
2023-04-16T14:45:06.866Z,1.23
2023-04-16T14:47:35.461Z,2.43
2023-04-16T14:50:04.321Z,2.17
2023-04-16T14:52:32.717Z,1.10
2023-04-16T14:55:01.017Z,1.10
2023-04-16T14:57:29.399Z,1.40
2023-04-16T14:59:57.720Z,1.50
2023-04-16T15:02:27.576Z,3.03
2023-04-16T15:04:56.328Z,1.23
2023-04-16T15:07:26.211Z,1.53
2023-04-16T15:09:54.574Z,1.20
2023-04-16T15:12:22.832Z,1.40
2023-04-16T15:14:51.222Z,1.20
2023-04-16T15:17:19.731Z,1.30
2023-04-16T15:19:51.034Z,1.80
2023-04-16T15:22:19.432Z,1.50
2023-04-16T15:24:47.850Z,1.43
2023-04-16T15:27:17.594Z,1.20
2023-04-16T15:29:46.740Z,1.60
2023-04-16T15:32:15.021Z,1.80
2023-04-16T15:34:43.373Z,1.47
2023-04-16T15:37:13.141Z,1.40
2023-04-16T15:39:41.656Z,1.23
2023-04-16T15:42:11.180Z,1.40
2023-04-16T15:44:39.410Z,1.13
2023-04-16T15:47:08.542Z,1.40
2023-04-16T15:49:37.172Z,1.20
2023-04-16T15:52:05.694Z,1.40
2023-04-16T15:54:35.507Z,1.27
2023-04-16T15:57:03.857Z,1.30
2023-04-16T15:59:32.669Z,2.27
2023-04-16T16:02:01.437Z,1.17
2023-04-16T16:04:29.884Z,1.30
2023-04-16T16:06:58.329Z,2.70
2023-04-16T16:09:27.150Z,1.30
2023-04-16T16:11:57.993Z,1.33
2023-04-16T16:14:26.850Z,1.80
2023-04-16T16:16:55.292Z,2.40
2023-04-16T16:19:23.581Z,1.70
2023-04-16T16:21:51.937Z,1.40
2023-04-16T16:24:20.340Z,2.10
2023-04-16T16:26:48.597Z,1.20
2023-04-16T16:29:18.502Z,2.97
2023-04-16T16:31:47.002Z,1.90
2023-04-16T16:34:20.807Z,1.60
2023-04-16T16:36:49.765Z,1.20
2023-04-16T16:39:18.087Z,1.63
2023-04-16T16:41:47.510Z,1.97
2023-04-16T16:44:15.892Z,2.53
2023-04-16T16:46:45.643Z,1.33
2023-04-16T16:49:14.055Z,1.40
2023-04-16T16:51:42.306Z,1.97
2023-04-16T16:54:10.684Z,2.77
2023-04-16T16:56:38.967Z,1.50
2023-04-16T16:59:09.081Z,1.80
2023-04-16T17:01:37.797Z,1.47
2023-04-16T17:04:08.057Z,2.60
2023-04-16T17:06:36.522Z,1.30
2023-04-16T17:09:04.938Z,1.77
2023-04-16T17:11:33.200Z,4.47
2023-04-16T17:14:01.565Z,1.17
2023-04-16T17:16:30.011Z,1.40
2023-04-16T17:18:59.218Z,1.20
2023-04-16T17:21:28.943Z,2.70
2023-04-16T17:23:58.153Z,1.40
2023-04-16T17:26:27.289Z,1.30
2023-04-16T17:28:57.572Z,1.20
2023-04-16T17:31:27.284Z,1.40
2023-04-16T17:33:55.668Z,1.20
2023-04-16T17:36:25.417Z,1.50
2023-04-16T17:38:55.009Z,1.20
2023-04-16T17:41:23.291Z,1.40
2023-04-16T17:43:51.966Z,1.40
2023-04-16T17:46:20.487Z,1.10
2023-04-16T17:48:49.090Z,1.30
2023-04-16T17:51:17.564Z,1.30
2023-04-16T17:53:45.912Z,1.60
2023-04-16T17:56:15.958Z,1.60
2023-04-16T17:58:44.287Z,1.50
2023-04-16T18:01:12.721Z,1.90
2023-04-16T18:03:42.109Z,1.37
2023-04-16T18:06:10.657Z,1.57
2023-04-16T18:08:38.935Z,1.30
2023-04-16T18:11:10.184Z,1.90
2023-04-16T18:13:40.030Z,1.40
2023-04-16T18:16:08.862Z,1.70
2023-04-16T18:18:37.270Z,1.20
2023-04-16T18:21:05.802Z,1.57
2023-04-16T18:23:34.077Z,5.30
2023-04-16T18:26:02.579Z,1.70
2023-04-16T18:28:30.918Z,1.70
2023-04-16T18:31:04.928Z,1.70
2023-04-16T18:33:54.005Z,1.83
2023-04-16T18:36:22.075Z,5.73
2023-04-16T18:39:00.786Z,5.00
2023-04-16T18:41:29.905Z,1.47
2023-04-16T18:43:58.671Z,1.40
2023-04-16T18:46:28.473Z,1.70
2023-04-16T18:48:58.294Z,1.50
2023-04-16T18:51:27.369Z,2.57
2023-04-16T18:53:55.746Z,1.87
2023-04-16T18:56:24.021Z,1.30
2023-04-16T18:58:52.380Z,1.40
2023-04-16T19:01:20.872Z,1.57
2023-04-16T19:03:50.596Z,1.80
2023-04-16T19:06:18.974Z,2.20
2023-04-16T19:08:47.306Z,1.50
2023-04-16T19:11:15.681Z,2.40
2023-04-16T19:13:43.984Z,2.40
2023-04-16T19:16:12.421Z,1.70
2023-04-16T19:18:40.985Z,2.30
2023-04-16T19:21:11.880Z,1.20
2023-04-16T19:23:40.215Z,1.60
2023-04-16T19:26:08.579Z,1.40
2023-04-16T19:28:38.581Z,1.53
2023-04-16T19:31:07.379Z,1.30
2023-04-16T19:33:35.937Z,1.40
2023-04-16T19:36:04.206Z,1.40
2023-04-16T19:38:33.878Z,1.40
2023-04-16T19:41:02.270Z,1.40
2023-04-16T19:43:31.140Z,1.40
2023-04-16T19:45:59.684Z,1.03
2023-04-16T19:48:28.126Z,1.10
2023-04-16T19:50:56.504Z,1.20
2023-04-16T19:53:25.100Z,1.37
2023-04-16T19:55:54.821Z,1.60
2023-04-16T19:58:23.195Z,1.60
2023-04-16T20:00:51.509Z,1.70
2023-04-16T20:03:19.753Z,1.17
2023-04-16T20:05:50.489Z,1.20
2023-04-16T20:08:18.762Z,1.20
2023-04-16T20:10:47.064Z,1.37
2023-04-16T20:13:18.601Z,1.47
2023-04-16T20:15:47.913Z,1.50
2023-04-16T20:18:16.218Z,1.20
2023-04-16T20:20:44.443Z,1.77
2023-04-16T20:23:12.712Z,1.53
2023-04-16T20:25:42.510Z,1.53
2023-04-16T20:28:10.902Z,1.97
2023-04-16T20:30:40.641Z,1.20
2023-04-16T20:33:09.149Z,1.60
2023-04-16T20:35:37.519Z,1.40
2023-04-16T20:38:05.859Z,1.67
2023-04-16T20:40:34.077Z,1.33
2023-04-16T20:43:02.428Z,1.47
2023-04-16T20:45:32.332Z,1.40
2023-04-16T20:48:02.348Z,1.30
2023-04-16T20:50:30.733Z,1.27
2023-04-16T20:52:59.040Z,1.93
2023-04-16T20:55:27.420Z,1.47
2023-04-16T20:57:55.748Z,1.30
2023-04-16T21:00:24.243Z,1.20
2023-04-16T21:02:52.717Z,1.67
2023-04-16T21:05:23.923Z,1.30
2023-04-16T21:07:54.642Z,1.40
2023-04-16T21:10:24.078Z,1.60
2023-04-16T21:12:52.457Z,1.50
2023-04-16T21:15:20.771Z,1.77
2023-04-16T21:17:49.109Z,1.50
2023-04-16T21:20:17.612Z,1.73
2023-04-16T21:22:47.322Z,1.30
2023-04-16T21:25:15.963Z,1.77
2023-04-16T21:27:44.255Z,1.30
2023-04-16T21:30:13.066Z,1.30
2023-04-16T21:32:41.429Z,1.20
2023-04-16T21:35:10.529Z,1.27
2023-04-16T21:37:38.842Z,1.40
2023-04-16T21:40:09.350Z,1.40
2023-04-16T21:42:39.757Z,2.00
2023-04-16T21:45:08.860Z,1.30
2023-04-16T21:47:37.480Z,1.43
2023-04-16T21:50:06.108Z,1.60
2023-04-16T21:52:40.411Z,1.30
2023-04-16T21:55:11.097Z,1.30
2023-04-16T21:57:39.460Z,1.40
2023-04-16T22:00:12.292Z,1.30
2023-04-16T22:02:40.822Z,1.37
2023-04-16T22:05:10.618Z,1.20
2023-04-16T22:07:39.090Z,1.50
2023-04-16T22:10:08.689Z,1.60
2023-04-16T22:12:39.769Z,1.20
2023-04-16T22:15:09.047Z,1.40
2023-04-16T22:17:37.453Z,1.33
2023-04-16T22:20:08.556Z,1.20
2023-04-16T22:22:36.996Z,1.40
2023-04-16T22:25:05.587Z,2.07
2023-04-16T22:27:33.841Z,1.77
2023-04-16T22:30:04.203Z,1.60
2023-04-16T22:32:33.145Z,1.90
2023-04-16T22:35:01.951Z,1.40
2023-04-16T22:37:30.313Z,1.40
2023-04-16T22:39:58.645Z,1.30
2023-04-16T22:42:27.023Z,2.53
2023-04-16T22:44:55.436Z,1.83
2023-04-16T22:47:25.228Z,1.37
2023-04-16T22:49:54.226Z,1.30
2023-04-16T22:52:22.583Z,1.27
2023-04-16T22:54:50.896Z,1.40
2023-04-16T22:57:21.178Z,1.37
2023-04-16T22:59:49.578Z,1.43
2023-04-16T23:02:17.971Z,1.20
2023-04-16T23:04:48.276Z,1.80
2023-04-16T23:07:16.644Z,1.20
2023-04-16T23:09:45.028Z,2.10
2023-04-16T23:12:13.369Z,1.83
2023-04-16T23:14:46.018Z,1.40
2023-04-16T23:17:14.648Z,1.27
2023-04-16T23:19:42.967Z,1.23
2023-04-16T23:22:12.647Z,1.30
2023-04-16T23:24:40.854Z,1.37
2023-04-16T23:27:09.161Z,1.73
2023-04-16T23:29:37.496Z,1.10
2023-04-16T23:32:05.974Z,1.80
2023-04-16T23:34:34.384Z,1.43
2023-04-16T23:37:02.648Z,1.40
2023-04-16T23:39:32.270Z,2.10
2023-04-16T23:42:00.707Z,2.67
2023-04-16T23:44:29.119Z,3.10
2023-04-16T23:46:57.522Z,2.63
2023-04-16T23:49:25.975Z,3.97
2023-04-16T23:51:54.433Z,3.07
2023-04-16T23:54:22.706Z,2.57
2023-04-16T23:56:52.433Z,1.93
2023-04-16T23:59:20.687Z,1.87
